Terminal Aerodrome Forecast
Issued by NWS Sioux Falls, SD

Home | Current Version | Previous Version | Graphics & Text | Print | Product List | Glossary Off
Versions: 1 2 3 4 5 6 7 8 9 10 11 12

383
FTUS43 KFSD 051722
TAFFSD
TAF
KFSD 051722Z 0518/0618 23009KT P6SM FEW250
     FM060000 20007KT P6SM SKC
     FM060800 20006KT P6SM SKC WS008/22038KT
     FM061400 21012KT P6SM FEW110=

USA.gov is the U.S. government's official web portal to all federal, state and local government web resources and services.